sensor_id;sensor_type;location;lat;lon;timestamp;pressure;altitude;pressure_sealevel;temperature;humidity
56681;BME280;42558;52.388;13.390;2023-03-13T00:00:07;100195.95;;;5.05;100.00
56681;BME280;42558;52.388;13.390;2023-03-13T00:02:38;100199.86;;;5.14;100.00
56681;BME280;42558;52.388;13.390;2023-03-13T00:05:08;100196.15;;;5.19;100.00
56681;BME280;42558;52.388;13.390;2023-03-13T00:07:38;100197.17;;;5.18;100.00
56681;BME280;42558;52.388;13.390;2023-03-13T00:10:09;100195.27;;;5.19;100.00
56681;BME280;42558;52.388;13.390;2023-03-13T00:12:39;100191.34;;;5.22;100.00
56681;BME280;42558;52.388;13.390;2023-03-13T00:15:09;100189.80;;;5.24;100.00
56681;BME280;42558;52.388;13.390;2023-03-13T00:17:39;100188.30;;;5.26;100.00
56681;BME280;42558;52.388;13.390;2023-03-13T00:20:10;100188.45;;;5.25;100.00
56681;BME280;42558;52.388;13.390;2023-03-13T00:22:40;100185.26;;;5.29;100.00
56681;BME280;42558;52.388;13.390;2023-03-13T00:25:09;100180.31;;;5.27;100.00
56681;BME280;42558;52.388;13.390;2023-03-13T00:27:39;100181.23;;;5.28;100.00
56681;BME280;42558;52.388;13.390;2023-03-13T00:30:10;100169.41;;;5.30;100.00
56681;BME280;42558;52.388;13.390;2023-03-13T00:32:42;100171.17;;;5.24;100.00
56681;BME280;42558;52.388;13.390;2023-03-13T00:35:14;100164.90;;;5.24;100.00
56681;BME280;42558;52.388;13.390;2023-03-13T00:37:44;100163.70;;;5.25;100.00
56681;BME280;42558;52.388;13.390;2023-03-13T00:40:13;100161.70;;;5.21;100.00
56681;BME280;42558;52.388;13.390;2023-03-13T00:42:43;100160.80;;;5.20;100.00
56681;BME280;42558;52.388;13.390;2023-03-13T00:45:13;100160.50;;;5.22;100.00
56681;BME280;42558;52.388;13.390;2023-03-13T00:47:43;100161.15;;;5.20;100.00
56681;BME280;42558;52.388;13.390;2023-03-13T00:50:13;100155.55;;;5.19;100.00
56681;BME280;42558;52.388;13.390;2023-03-13T00:52:43;100157.27;;;5.18;100.00
56681;BME280;42558;52.388;13.390;2023-03-13T00:55:12;100154.95;;;5.16;100.00
56681;BME280;42558;52.388;13.390;2023-03-13T00:57:42;100148.96;;;5.14;100.00
56681;BME280;42558;52.388;13.390;2023-03-13T01:00:13;100148.15;;;5.15;100.00
56681;BME280;42558;52.388;13.390;2023-03-13T01:02:44;100143.95;;;5.15;100.00
56681;BME280;42558;52.388;13.390;2023-03-13T01:05:14;100141.52;;;5.15;100.00
56681;BME280;42558;52.388;13.390;2023-03-13T01:07:44;100138.83;;;5.13;100.00
56681;BME280;42558;52.388;13.390;2023-03-13T01:10:14;100139.30;;;5.10;100.00
56681;BME280;42558;52.388;13.390;2023-03-13T01:12:44;100135.09;;;5.09;100.00
56681;BME280;42558;52.388;13.390;2023-03-13T01:15:14;100132.16;;;5.04;100.00
56681;BME280;42558;52.388;13.390;2023-03-13T01:17:45;100128.44;;;5.02;100.00
56681;BME280;42558;52.388;13.390;2023-03-13T01:20:15;100127.78;;;4.96;100.00
56681;BME280;42558;52.388;13.390;2023-03-13T01:22:45;100126.17;;;4.94;100.00
56681;BME280;42558;52.388;13.390;2023-03-13T01:25:15;100125.25;;;4.93;100.00
56681;BME280;42558;52.388;13.390;2023-03-13T01:27:46;100127.48;;;4.91;100.00
56681;BME280;42558;52.388;13.390;2023-03-13T01:30:16;100127.51;;;4.86;100.00
56681;BME280;42558;52.388;13.390;2023-03-13T01:32:46;100131.16;;;4.86;100.00
56681;BME280;42558;52.388;13.390;2023-03-13T01:35:16;100129.63;;;4.87;100.00
56681;BME280;42558;52.388;13.390;2023-03-13T01:37:44;100124.73;;;4.86;100.00
56681;BME280;42558;52.388;13.390;2023-03-13T01:40:13;100121.65;;;4.88;100.00
56681;BME280;42558;52.388;13.390;2023-03-13T01:43:22;100113.00;;;4.84;100.00
56681;BME280;42558;52.388;13.390;2023-03-13T01:49:09;100118.64;;;4.80;100.00
56681;BME280;42558;52.388;13.390;2023-03-13T01:51:55;100117.02;;;4.78;100.00
56681;BME280;42558;52.388;13.390;2023-03-13T01:54:38;100111.27;;;4.77;100.00
56681;BME280;42558;52.388;13.390;2023-03-13T01:57:33;100110.16;;;4.81;100.00
56681;BME280;42558;52.388;13.390;2023-03-13T02:00:13;100104.48;;;4.84;100.00
56681;BME280;42558;52.388;13.390;2023-03-13T02:02:52;100092.12;;;4.84;100.00
56681;BME280;42558;52.388;13.390;2023-03-13T02:05:26;100094.19;;;4.83;100.00
56681;BME280;42558;52.388;13.390;2023-03-13T02:08:03;100085.85;;;4.84;100.00
56681;BME280;42558;52.388;13.390;2023-03-13T02:10:42;100083.91;;;4.83;100.00
56681;BME280;42558;52.388;13.390;2023-03-13T02:13:16;100078.33;;;4.90;100.00
56681;BME280;42558;52.388;13.390;2023-03-13T02:15:47;100079.31;;;4.94;100.00
56681;BME280;42558;52.388;13.390;2023-03-13T02:18:15;100077.09;;;4.96;100.00
56681;BME280;42558;52.388;13.390;2023-03-13T02:20:43;100072.23;;;4.97;100.00
56681;BME280;42558;52.388;13.390;2023-03-13T02:23:30;100068.67;;;4.94;100.00
56681;BME280;42558;52.388;13.390;2023-03-13T02:26:02;100068.08;;;4.99;100.00
56681;BME280;42558;52.388;13.390;2023-03-13T02:28:35;100065.50;;;5.00;100.00
56681;BME280;42558;52.388;13.390;2023-03-13T02:31:08;100062.03;;;5.00;100.00
56681;BME280;42558;52.388;13.390;2023-03-13T02:33:41;100053.79;;;4.97;100.00
56681;BME280;42558;52.388;13.390;2023-03-13T02:36:13;100063.02;;;4.97;100.00
56681;BME280;42558;52.388;13.390;2023-03-13T02:38:55;100059.98;;;5.02;100.00
56681;BME280;42558;52.388;13.390;2023-03-13T02:41:27;100055.10;;;5.08;100.00
56681;BME280;42558;52.388;13.390;2023-03-13T02:43:57;100050.41;;;5.08;100.00
56681;BME280;42558;52.388;13.390;2023-03-13T02:46:27;100049.02;;;5.09;100.00
56681;BME280;42558;52.388;13.390;2023-03-13T02:48:57;100043.25;;;5.15;100.00
56681;BME280;42558;52.388;13.390;2023-03-13T02:51:38;100044.71;;;5.18;100.00
56681;BME280;42558;52.388;13.390;2023-03-13T02:54:16;100040.50;;;5.25;100.00
56681;BME280;42558;52.388;13.390;2023-03-13T02:56:51;100034.80;;;5.28;100.00
56681;BME280;42558;52.388;13.390;2023-03-13T02:59:21;100030.97;;;5.28;100.00
56681;BME280;42558;52.388;13.390;2023-03-13T03:01:49;100024.31;;;5.34;100.00
56681;BME280;42558;52.388;13.390;2023-03-13T03:04:23;100016.34;;;5.35;100.00
56681;BME280;42558;52.388;13.390;2023-03-13T03:06:53;100010.48;;;5.38;100.00
56681;BME280;42558;52.388;13.390;2023-03-13T03:09:24;100007.49;;;5.45;100.00
56681;BME280;42558;52.388;13.390;2023-03-13T03:11:54;100004.20;;;5.46;100.00
56681;BME280;42558;52.388;13.390;2023-03-13T03:14:23;99997.21;;;5.45;100.00
56681;BME280;42558;52.388;13.390;2023-03-13T03:16:53;99990.73;;;5.43;100.00
56681;BME280;42558;52.388;13.390;2023-03-13T03:19:23;99990.84;;;5.48;100.00
56681;BME280;42558;52.388;13.390;2023-03-13T03:21:53;99988.16;;;5.46;100.00
56681;BME280;42558;52.388;13.390;2023-03-13T03:24:23;99989.65;;;5.50;100.00
56681;BME280;42558;52.388;13.390;2023-03-13T03:26:53;99988.82;;;5.52;100.00
56681;BME280;42558;52.388;13.390;2023-03-13T03:29:23;99991.64;;;5.54;100.00
56681;BME280;42558;52.388;13.390;2023-03-13T03:31:53;99985.27;;;5.58;100.00
56681;BME280;42558;52.388;13.390;2023-03-13T03:34:23;99981.27;;;5.58;100.00
56681;BME280;42558;52.388;13.390;2023-03-13T03:36:53;99977.59;;;5.57;100.00
56681;BME280;42558;52.388;13.390;2023-03-13T03:39:23;99977.36;;;5.55;100.00
56681;BME280;42558;52.388;13.390;2023-03-13T03:41:53;99978.67;;;5.51;100.00
56681;BME280;42558;52.388;13.390;2023-03-13T03:44:23;99972.42;;;5.52;100.00
56681;BME280;42558;52.388;13.390;2023-03-13T03:46:53;99964.60;;;5.61;100.00
56681;BME280;42558;52.388;13.390;2023-03-13T03:49:23;99960.38;;;5.77;100.00
56681;BME280;42558;52.388;13.390;2023-03-13T03:51:52;99954.33;;;5.70;100.00
56681;BME280;42558;52.388;13.390;2023-03-13T03:54:22;99949.70;;;5.66;100.00
56681;BME280;42558;52.388;13.390;2023-03-13T03:56:52;99948.73;;;5.69;100.00
56681;BME280;42558;52.388;13.390;2023-03-13T03:59:20;99946.45;;;5.78;100.00
56681;BME280;42558;52.388;13.390;2023-03-13T04:01:49;99939.77;;;5.85;100.00
56681;BME280;42558;52.388;13.390;2023-03-13T04:04:17;99939.52;;;5.89;100.00
56681;BME280;42558;52.388;13.390;2023-03-13T04:06:46;99932.30;;;5.93;100.00
56681;BME280;42558;52.388;13.390;2023-03-13T04:09:14;99933.20;;;5.95;100.00
56681;BME280;42558;52.388;13.390;2023-03-13T04:11:43;99925.98;;;5.91;100.00
56681;BME280;42558;52.388;13.390;2023-03-13T04:14:11;99921.33;;;5.94;100.00
56681;BME280;42558;52.388;13.390;2023-03-13T04:16:40;99918.82;;;6.00;100.00
56681;BME280;42558;52.388;13.390;2023-03-13T04:19:08;99914.48;;;6.10;100.00
56681;BME280;42558;52.388;13.390;2023-03-13T04:21:37;99910.01;;;6.04;100.00
56681;BME280;42558;52.388;13.390;2023-03-13T04:24:06;99907.25;;;6.07;100.00
56681;BME280;42558;52.388;13.390;2023-03-13T04:26:33;99900.70;;;6.10;100.00
56681;BME280;42558;52.388;13.390;2023-03-13T04:29:02;99898.53;;;6.17;100.00
56681;BME280;42558;52.388;13.390;2023-03-13T04:31:31;99898.88;;;6.16;100.00
56681;BME280;42558;52.388;13.390;2023-03-13T04:33:59;99891.77;;;6.19;100.00
56681;BME280;42558;52.388;13.390;2023-03-13T04:36:27;99888.04;;;6.15;100.00
56681;BME280;42558;52.388;13.390;2023-03-13T04:38:56;99886.66;;;6.15;100.00
56681;BME280;42558;52.388;13.390;2023-03-13T04:41:24;99880.60;;;6.20;100.00
56681;BME280;42558;52.388;13.390;2023-03-13T04:43:53;99883.19;;;6.18;100.00
56681;BME280;42558;52.388;13.390;2023-03-13T04:46:21;99875.79;;;6.14;100.00
56681;BME280;42558;52.388;13.390;2023-03-13T04:48:50;99875.48;;;6.16;100.00
56681;BME280;42558;52.388;13.390;2023-03-13T04:51:18;99873.79;;;6.19;100.00
56681;BME280;42558;52.388;13.390;2023-03-13T04:53:46;99863.30;;;6.18;100.00
56681;BME280;42558;52.388;13.390;2023-03-13T04:56:26;99862.71;;;6.14;100.00
56681;BME280;42558;52.388;13.390;2023-03-13T04:59:13;99858.09;;;6.09;100.00
56681;BME280;42558;52.388;13.390;2023-03-13T05:01:44;99853.16;;;6.07;100.00
56681;BME280;42558;52.388;13.390;2023-03-13T05:04:14;99851.42;;;6.08;100.00
56681;BME280;42558;52.388;13.390;2023-03-13T05:06:44;99844.98;;;6.08;100.00
56681;BME280;42558;52.388;13.390;2023-03-13T05:09:13;99835.73;;;6.08;100.00
56681;BME280;42558;52.388;13.390;2023-03-13T05:11:43;99826.50;;;6.09;100.00
56681;BME280;42558;52.388;13.390;2023-03-13T05:14:13;99822.95;;;6.05;100.00
56681;BME280;42558;52.388;13.390;2023-03-13T05:16:43;99815.89;;;6.00;100.00
56681;BME280;42558;52.388;13.390;2023-03-13T05:19:13;99807.08;;;5.95;100.00
56681;BME280;42558;52.388;13.390;2023-03-13T05:21:43;99801.56;;;5.99;100.00
56681;BME280;42558;52.388;13.390;2023-03-13T05:24:12;99802.23;;;5.97;100.00
56681;BME280;42558;52.388;13.390;2023-03-13T05:26:42;99801.81;;;5.93;100.00
56681;BME280;42558;52.388;13.390;2023-03-13T05:29:12;99800.16;;;5.89;100.00
56681;BME280;42558;52.388;13.390;2023-03-13T05:31:42;99799.59;;;5.88;100.00
56681;BME280;42558;52.388;13.390;2023-03-13T05:34:11;99792.78;;;5.87;100.00
56681;BME280;42558;52.388;13.390;2023-03-13T05:36:41;99789.45;;;5.86;100.00
56681;BME280;42558;52.388;13.390;2023-03-13T05:39:11;99784.55;;;5.85;100.00
56681;BME280;42558;52.388;13.390;2023-03-13T05:41:41;99773.25;;;5.88;100.00
56681;BME280;42558;52.388;13.390;2023-03-13T05:44:11;99764.65;;;5.84;100.00
56681;BME280;42558;52.388;13.390;2023-03-13T05:46:40;99756.78;;;5.82;100.00
56681;BME280;42558;52.388;13.390;2023-03-13T05:49:10;99753.50;;;5.85;100.00
56681;BME280;42558;52.388;13.390;2023-03-13T05:51:40;99748.33;;;5.88;100.00
56681;BME280;42558;52.388;13.390;2023-03-13T05:54:10;99738.71;;;5.87;100.00
56681;BME280;42558;52.388;13.390;2023-03-13T05:56:43;99735.77;;;5.88;100.00
56681;BME280;42558;52.388;13.390;2023-03-13T05:59:13;99729.83;;;5.88;100.00
56681;BME280;42558;52.388;13.390;2023-03-13T06:01:43;99725.64;;;5.88;100.00
56681;BME280;42558;52.388;13.390;2023-03-13T06:04:13;99725.25;;;5.94;100.00
56681;BME280;42558;52.388;13.390;2023-03-13T06:06:43;99724.95;;;5.97;100.00
56681;BME280;42558;52.388;13.390;2023-03-13T06:09:13;99722.64;;;5.95;100.00
56681;BME280;42558;52.388;13.390;2023-03-13T06:11:43;99718.52;;;5.99;100.00
56681;BME280;42558;52.388;13.390;2023-03-13T06:14:13;99713.12;;;6.00;100.00
56681;BME280;42558;52.388;13.390;2023-03-13T06:16:43;99712.58;;;5.98;100.00
56681;BME280;42558;52.388;13.390;2023-03-13T06:19:13;99704.58;;;6.00;100.00
56681;BME280;42558;52.388;13.390;2023-03-13T06:21:44;99697.95;;;6.00;100.00
56681;BME280;42558;52.388;13.390;2023-03-13T06:24:14;99685.27;;;6.04;100.00
56681;BME280;42558;52.388;13.390;2023-03-13T06:26:48;99684.81;;;6.09;100.00
56681;BME280;42558;52.388;13.390;2023-03-13T06:29:18;99681.20;;;6.12;100.00
56681;BME280;42558;52.388;13.390;2023-03-13T06:31:48;99674.73;;;6.12;100.00
56681;BME280;42558;52.388;13.390;2023-03-13T06:34:18;99669.27;;;6.20;100.00
56681;BME280;42558;52.388;13.390;2023-03-13T06:36:48;99665.83;;;6.23;100.00
56681;BME280;42558;52.388;13.390;2023-03-13T06:39:18;99657.45;;;6.23;100.00
56681;BME280;42558;52.388;13.390;2023-03-13T06:41:47;99657.30;;;6.26;100.00
56681;BME280;42558;52.388;13.390;2023-03-13T06:44:17;99645.09;;;6.26;100.00
56681;BME280;42558;52.388;13.390;2023-03-13T06:46:47;99637.23;;;6.25;100.00
56681;BME280;42558;52.388;13.390;2023-03-13T06:49:17;99633.73;;;6.26;100.00
56681;BME280;42558;52.388;13.390;2023-03-13T06:51:46;99623.80;;;6.27;100.00
56681;BME280;42558;52.388;13.390;2023-03-13T06:54:16;99618.30;;;6.34;100.00
56681;BME280;42558;52.388;13.390;2023-03-13T06:56:45;99606.60;;;6.33;100.00
56681;BME280;42558;52.388;13.390;2023-03-13T06:59:13;99609.06;;;6.34;100.00
56681;BME280;42558;52.388;13.390;2023-03-13T07:01:41;99611.02;;;6.38;100.00
56681;BME280;42558;52.388;13.390;2023-03-13T07:04:12;99607.19;;;6.39;100.00
56681;BME280;42558;52.388;13.390;2023-03-13T07:06:41;99608.63;;;6.42;100.00
56681;BME280;42558;52.388;13.390;2023-03-13T07:09:10;99610.05;;;6.43;100.00
56681;BME280;42558;52.388;13.390;2023-03-13T07:11:38;99605.69;;;6.44;100.00
56681;BME280;42558;52.388;13.390;2023-03-13T07:14:06;99605.35;;;6.46;100.00
56681;BME280;42558;52.388;13.390;2023-03-13T07:16:46;99598.38;;;6.47;100.00
56681;BME280;42558;52.388;13.390;2023-03-13T07:19:16;99600.52;;;6.51;100.00
56681;BME280;42558;52.388;13.390;2023-03-13T07:21:46;99598.10;;;6.54;100.00
56681;BME280;42558;52.388;13.390;2023-03-13T07:24:16;99592.69;;;6.54;100.00
56681;BME280;42558;52.388;13.390;2023-03-13T07:26:45;99586.92;;;6.54;100.00
56681;BME280;42558;52.388;13.390;2023-03-13T07:29:32;99580.35;;;6.58;100.00
56681;BME280;42558;52.388;13.390;2023-03-13T07:32:02;99581.92;;;6.59;100.00
56681;BME280;42558;52.388;13.390;2023-03-13T07:34:31;99583.67;;;6.60;100.00
56681;BME280;42558;52.388;13.390;2023-03-13T07:36:59;99583.67;;;6.60;100.00
56681;BME280;42558;52.388;13.390;2023-03-13T07:39:27;99579.50;;;6.61;100.00
56681;BME280;42558;52.388;13.390;2023-03-13T07:41:56;99568.54;;;6.64;100.00
56681;BME280;42558;52.388;13.390;2023-03-13T07:44:25;99563.85;;;6.67;100.00
56681;BME280;42558;52.388;13.390;2023-03-13T07:46:53;99564.08;;;6.73;100.00
56681;BME280;42558;52.388;13.390;2023-03-13T07:49:22;99558.89;;;6.76;100.00
56681;BME280;42558;52.388;13.390;2023-03-13T07:51:50;99552.48;;;6.82;100.00
56681;BME280;42558;52.388;13.390;2023-03-13T07:54:18;99549.35;;;6.87;100.00
56681;BME280;42558;52.388;13.390;2023-03-13T07:56:47;99541.36;;;6.91;100.00
56681;BME280;42558;52.388;13.390;2023-03-13T07:59:16;99537.20;;;6.96;100.00
56681;BME280;42558;52.388;13.390;2023-03-13T08:01:44;99525.19;;;7.01;100.00
56681;BME280;42558;52.388;13.390;2023-03-13T08:04:13;99529.24;;;7.05;100.00
56681;BME280;42558;52.388;13.390;2023-03-13T08:06:41;99521.40;;;7.08;100.00
56681;BME280;42558;52.388;13.390;2023-03-13T08:09:09;99521.60;;;7.11;100.00
56681;BME280;42558;52.388;13.390;2023-03-13T08:11:38;99519.02;;;7.16;100.00
56681;BME280;42558;52.388;13.390;2023-03-13T08:14:12;99515.54;;;7.19;100.00
56681;BME280;42558;52.388;13.390;2023-03-13T08:16:41;99518.70;;;7.20;100.00
56681;BME280;42558;52.388;13.390;2023-03-13T08:19:09;99500.52;;;7.21;100.00
56681;BME280;42558;52.388;13.390;2023-03-13T08:21:38;99501.92;;;7.23;100.00
56681;BME280;42558;52.388;13.390;2023-03-13T08:24:08;99500.39;;;7.28;100.00
56681;BME280;42558;52.388;13.390;2023-03-13T08:26:41;99497.45;;;7.33;100.00
56681;BME280;42558;52.388;13.390;2023-03-13T08:29:13;99494.35;;;7.37;100.00
56681;BME280;42558;52.388;13.390;2023-03-13T08:31:49;99490.33;;;7.38;100.00
56681;BME280;42558;52.388;13.390;2023-03-13T08:34:20;99489.10;;;7.37;100.00
56681;BME280;42558;52.388;13.390;2023-03-13T08:36:49;99490.67;;;7.40;100.00
56681;BME280;42558;52.388;13.390;2023-03-13T08:39:21;99479.16;;;7.45;100.00
56681;BME280;42558;52.388;13.390;2023-03-13T08:41:51;99480.58;;;7.49;100.00
56681;BME280;42558;52.388;13.390;2023-03-13T08:44:21;99483.37;;;7.49;100.00
56681;BME280;42558;52.388;13.390;2023-03-13T08:46:50;99472.05;;;7.57;100.00
56681;BME280;42558;52.388;13.390;2023-03-13T08:49:20;99471.02;;;7.61;100.00
56681;BME280;42558;52.388;13.390;2023-03-13T08:51:50;99470.00;;;7.65;100.00
56681;BME280;42558;52.388;13.390;2023-03-13T08:54:20;99469.30;;;7.67;100.00
56681;BME280;42558;52.388;13.390;2023-03-13T08:56:50;99460.77;;;7.72;100.00
56681;BME280;42558;52.388;13.390;2023-03-13T08:59:20;99460.23;;;7.75;100.00
56681;BME280;42558;52.388;13.390;2023-03-13T09:01:49;99449.94;;;7.77;100.00
56681;BME280;42558;52.388;13.390;2023-03-13T09:04:19;99445.05;;;7.82;100.00
56681;BME280;42558;52.388;13.390;2023-03-13T09:06:49;99441.73;;;7.84;100.00
56681;BME280;42558;52.388;13.390;2023-03-13T09:09:19;99437.89;;;7.89;100.00
56681;BME280;42558;52.388;13.390;2023-03-13T09:11:48;99435.11;;;7.91;100.00
56681;BME280;42558;52.388;13.390;2023-03-13T09:14:18;99430.73;;;7.94;100.00
56681;BME280;42558;52.388;13.390;2023-03-13T09:16:48;99423.21;;;7.98;100.00
56681;BME280;42558;52.388;13.390;2023-03-13T09:19:18;99428.32;;;8.07;100.00
56681;BME280;42558;52.388;13.390;2023-03-13T09:21:48;99434.62;;;8.14;100.00
56681;BME280;42558;52.388;13.390;2023-03-13T09:24:18;99434.80;;;8.12;100.00
56681;BME280;42558;52.388;13.390;2023-03-13T09:26:48;99438.13;;;8.12;100.00
56681;BME280;42558;52.388;13.390;2023-03-13T09:29:29;99439.02;;;8.18;100.00
56681;BME280;42558;52.388;13.390;2023-03-13T09:31:59;99436.04;;;8.13;100.00
56681;BME280;42558;52.388;13.390;2023-03-13T09:34:29;99441.27;;;8.07;100.00
56681;BME280;42558;52.388;13.390;2023-03-13T09:37:00;99441.80;;;8.09;100.00
56681;BME280;42558;52.388;13.390;2023-03-13T09:39:30;99436.20;;;8.12;100.00
56681;BME280;42558;52.388;13.390;2023-03-13T09:44:48;99423.27;;;8.20;100.00
56681;BME280;42558;52.388;13.390;2023-03-13T09:47:30;99421.71;;;8.35;100.00
56681;BME280;42558;52.388;13.390;2023-03-13T09:50:17;99418.76;;;8.42;100.00
56681;BME280;42558;52.388;13.390;2023-03-13T09:52:54;99416.32;;;8.52;100.00
56681;BME280;42558;52.388;13.390;2023-03-13T09:55:31;99414.56;;;8.58;100.00
56681;BME280;42558;52.388;13.390;2023-03-13T09:58:16;99407.89;;;8.62;100.00
56681;BME280;42558;52.388;13.390;2023-03-13T10:00:57;99409.14;;;8.63;100.00
56681;BME280;42558;52.388;13.390;2023-03-13T10:03:38;99407.38;;;8.66;100.00
56681;BME280;42558;52.388;13.390;2023-03-13T10:06:22;99404.56;;;8.67;100.00
56681;BME280;42558;52.388;13.390;2023-03-13T10:08:54;99411.42;;;8.64;100.00
56681;BME280;42558;52.388;13.390;2023-03-13T10:11:36;99405.28;;;8.62;100.00
56681;BME280;42558;52.388;13.390;2023-03-13T10:14:26;99414.73;;;8.60;100.00
56681;BME280;42558;52.388;13.390;2023-03-13T10:19:43;99401.25;;;8.65;100.00
56681;BME280;42558;52.388;13.390;2023-03-13T10:22:22;99409.13;;;8.75;100.00
56681;BME280;42558;52.388;13.390;2023-03-13T10:25:05;99405.95;;;8.84;100.00
56681;BME280;42558;52.388;13.390;2023-03-13T10:27:50;99401.73;;;8.96;100.00
56681;BME280;42558;52.388;13.390;2023-03-13T10:30:28;99390.84;;;9.06;100.00
56681;BME280;42558;52.388;13.390;2023-03-13T10:35:42;99401.67;;;9.16;100.00
56681;BME280;42558;52.388;13.390;2023-03-13T10:38:18;99397.64;;;9.19;100.00
56681;BME280;42558;52.388;13.390;2023-03-13T10:41:01;99396.76;;;9.23;100.00
56681;BME280;42558;52.388;13.390;2023-03-13T10:43:33;99388.83;;;9.33;100.00
56681;BME280;42558;52.388;13.390;2023-03-13T10:46:03;99381.79;;;9.43;100.00
56681;BME280;42558;52.388;13.390;2023-03-13T10:48:35;99378.02;;;9.58;100.00
56681;BME280;42558;52.388;13.390;2023-03-13T10:51:20;99373.05;;;9.68;100.00
56681;BME280;42558;52.388;13.390;2023-03-13T10:53:51;99368.09;;;9.79;100.00
56681;BME280;42558;52.388;13.390;2023-03-13T10:56:28;99363.46;;;9.89;100.00
56681;BME280;42558;52.388;13.390;2023-03-13T10:58:59;99356.21;;;9.98;100.00
56681;BME280;42558;52.388;13.390;2023-03-13T11:01:41;99353.87;;;10.06;100.00
56681;BME280;42558;52.388;13.390;2023-03-13T11:07:21;99348.71;;;10.18;100.00
56681;BME280;42558;52.388;13.390;2023-03-13T11:10:23;99344.27;;;10.25;100.00
56681;BME280;42558;52.388;13.390;2023-03-13T11:12:56;99338.20;;;10.37;100.00
56681;BME280;42558;52.388;13.390;2023-03-13T11:15:46;99340.20;;;10.49;100.00
56681;BME280;42558;52.388;13.390;2023-03-13T11:21:00;99322.11;;;10.68;100.00
56681;BME280;42558;52.388;13.390;2023-03-13T11:23:52;99317.91;;;10.84;100.00
56681;BME280;42558;52.388;13.390;2023-03-13T11:26:42;99313.39;;;10.94;100.00
56681;BME280;42558;52.388;13.390;2023-03-13T11:30:00;99315.20;;;11.04;100.00
56681;BME280;42558;52.388;13.390;2023-03-13T11:32:59;99309.57;;;11.20;100.00
56681;BME280;42558;52.388;13.390;2023-03-13T11:35:49;99302.20;;;11.32;100.00
56681;BME280;42558;52.388;13.390;2023-03-13T11:38:36;99302.46;;;11.39;100.00
56681;BME280;42558;52.388;13.390;2023-03-13T11:53:32;99294.09;;;11.70;100.00
56681;BME280;42558;52.388;13.390;2023-03-13T11:56:20;99296.73;;;11.69;100.00
56681;BME280;42558;52.388;13.390;2023-03-13T11:59:21;99298.98;;;11.73;100.00
56681;BME280;42558;52.388;13.390;2023-03-13T12:05:00;99297.32;;;11.93;100.00
56681;BME280;42558;52.388;13.390;2023-03-13T12:07:49;99293.95;;;12.05;100.00
56681;BME280;42558;52.388;13.390;2023-03-13T12:10:32;99300.56;;;12.09;100.00
56681;BME280;42558;52.388;13.390;2023-03-13T12:13:16;99298.89;;;12.16;100.00
56681;BME280;42558;52.388;13.390;2023-03-13T12:15:55;99292.81;;;12.21;100.00
56681;BME280;42558;52.388;13.390;2023-03-13T12:18:42;99298.14;;;12.39;99.96
56681;BME280;42558;52.388;13.390;2023-03-13T12:21:34;99296.43;;;12.56;99.97
56681;BME280;42558;52.388;13.390;2023-03-13T12:27:04;99284.95;;;13.38;97.48
56681;BME280;42558;52.388;13.390;2023-03-13T12:29:55;99279.25;;;13.40;95.59
56681;BME280;42558;52.388;13.390;2023-03-13T12:33:00;99273.57;;;13.50;95.21
56681;BME280;42558;52.388;13.390;2023-03-13T12:35:31;99275.02;;;13.72;93.57
56681;BME280;42558;52.388;13.390;2023-03-13T12:38:41;99271.05;;;13.82;94.57
56681;BME280;42558;52.388;13.390;2023-03-13T12:41:24;99270.78;;;13.79;92.77
56681;BME280;42558;52.388;13.390;2023-03-13T12:43:56;99270.38;;;13.51;93.76
56681;BME280;42558;52.388;13.390;2023-03-13T12:47:22;99266.50;;;13.50;93.40
56681;BME280;42558;52.388;13.390;2023-03-13T12:56:41;99250.69;;;14.13;91.57
56681;BME280;42558;52.388;13.390;2023-03-13T12:59:08;99243.57;;;14.36;89.76
56681;BME280;42558;52.388;13.390;2023-03-13T13:01:46;99241.28;;;14.63;88.74
56681;BME280;42558;52.388;13.390;2023-03-13T13:04:21;99236.94;;;14.79;87.56
56681;BME280;42558;52.388;13.390;2023-03-13T13:07:26;99232.16;;;14.92;87.71
56681;BME280;42558;52.388;13.390;2023-03-13T13:15:58;99230.94;;;14.97;85.25
56681;BME280;42558;52.388;13.390;2023-03-13T13:18:29;99220.79;;;15.12;83.87
56681;BME280;42558;52.388;13.390;2023-03-13T13:39:49;99205.39;;;14.87;83.92
56681;BME280;42558;52.388;13.390;2023-03-13T13:47:48;99204.27;;;14.77;83.29
56681;BME280;42558;52.388;13.390;2023-03-13T13:50:27;99200.40;;;14.76;82.60
56681;BME280;42558;52.388;13.390;2023-03-13T13:53:43;99201.08;;;14.77;83.54
56681;BME280;42558;52.388;13.390;2023-03-13T13:56:47;99202.10;;;14.72;84.30
56681;BME280;42558;52.388;13.390;2023-03-13T14:02:17;99202.20;;;14.63;84.41
56681;BME280;42558;52.388;13.390;2023-03-13T14:08:00;99195.30;;;14.75;84.04
56681;BME280;42558;52.388;13.390;2023-03-13T14:10:44;99194.24;;;14.93;83.27
56681;BME280;42558;52.388;13.390;2023-03-13T14:13:19;99196.45;;;15.09;82.89
56681;BME280;42558;52.388;13.390;2023-03-13T14:15:52;99195.79;;;15.19;82.07
56681;BME280;42558;52.388;13.390;2023-03-13T14:18:30;99194.89;;;15.25;82.40
56681;BME280;42558;52.388;13.390;2023-03-13T14:21:05;99192.66;;;15.11;82.19
56681;BME280;42558;52.388;13.390;2023-03-13T14:23:45;99190.24;;;14.97;82.53
56681;BME280;42558;52.388;13.390;2023-03-13T14:26:21;99190.58;;;14.98;82.53
56681;BME280;42558;52.388;13.390;2023-03-13T14:31:31;99181.85;;;15.17;82.80
56681;BME280;42558;52.388;13.390;2023-03-13T14:34:06;99182.78;;;15.10;82.10
56681;BME280;42558;52.388;13.390;2023-03-13T14:40:26;99181.23;;;15.25;81.18
56681;BME280;42558;52.388;13.390;2023-03-13T14:43:00;99184.09;;;15.19;81.49
56681;BME280;42558;52.388;13.390;2023-03-13T14:45:34;99176.65;;;15.13;81.04